sensor_id;sensor_type;location;lat;lon;timestamp;pressure;altitude;pressure_sealevel;temperature;humidity
72210;BME280;60113;48.762;12.302;2023-04-05T00:01:25;97807.97;;;-5.82;72.70
72210;BME280;60113;48.762;12.302;2023-04-05T00:03:51;97805.41;;;-5.77;73.98
72210;BME280;60113;48.762;12.302;2023-04-05T00:06:16;97795.16;;;-5.75;64.44
72210;BME280;60113;48.762;12.302;2023-04-05T00:08:43;97801.97;;;-5.70;69.70
72210;BME280;60113;48.762;12.302;2023-04-05T00:11:13;97799.41;;;-5.65;74.26
72210;BME280;60113;48.762;12.302;2023-04-05T00:13:39;97806.22;;;-5.66;70.87
72210;BME280;60113;48.762;12.302;2023-04-05T00:16:04;97795.97;;;-5.61;72.34
72210;BME280;60113;48.762;12.302;2023-04-05T00:18:31;97795.97;;;-5.59;72.67
72210;BME280;60113;48.762;12.302;2023-04-05T00:20:59;97800.25;;;-5.55;76.04
72210;BME280;60113;48.762;12.302;2023-04-05T00:23:24;97792.56;;;-5.54;74.47
72210;BME280;60113;48.762;12.302;2023-04-05T00:25:51;97787.44;;;-5.54;76.44
72210;BME280;60113;48.762;12.302;2023-04-05T00:28:16;97791.72;;;-5.57;71.76
72210;BME280;60113;48.762;12.302;2023-04-05T00:30:42;97793.41;;;-5.59;69.25
72210;BME280;60113;48.762;12.302;2023-04-05T00:33:07;97790.84;;;-5.61;72.56
72210;BME280;60113;48.762;12.302;2023-04-05T00:35:32;97790.88;;;-5.66;65.63
72210;BME280;60113;48.762;12.302;2023-04-05T00:37:58;97790.03;;;-5.65;72.42
72210;BME280;60113;48.762;12.302;2023-04-05T00:40:23;97784.03;;;-5.67;71.69
72210;BME280;60113;48.762;12.302;2023-04-05T00:42:48;97781.50;;;-5.68;67.87
72210;BME280;60113;48.762;12.302;2023-04-05T00:45:14;97787.47;;;-5.71;64.95
72210;BME280;60113;48.762;12.302;2023-04-05T00:47:40;97790.88;;;-5.70;75.23
72210;BME280;60113;48.762;12.302;2023-04-05T00:50:05;97787.47;;;-5.71;77.10
72210;BME280;60113;48.762;12.302;2023-04-05T00:52:36;97788.31;;;-5.77;75.44
72210;BME280;60113;48.762;12.302;2023-04-05T00:55:07;97780.63;;;-5.78;70.73
72210;BME280;60113;48.762;12.302;2023-04-05T00:57:34;97776.38;;;-5.79;72.17
72210;BME280;60113;48.762;12.302;2023-04-05T01:00:03;97780.63;;;-5.78;73.51
72210;BME280;60113;48.762;12.302;2023-04-05T01:02:56;97781.50;;;-5.82;71.50
72210;BME280;60113;48.762;12.302;2023-04-05T01:10:34;97776.41;;;-5.88;75.68
72210;BME280;60113;48.762;12.302;2023-04-05T01:13:02;97777.28;;;-5.91;76.36
72210;BME280;60113;48.762;12.302;2023-04-05T01:15:27;97769.59;;;-5.96;71.12
72210;BME280;60113;48.762;12.302;2023-04-05T01:17:53;97770.47;;;-6.00;62.71
72210;BME280;60113;48.762;12.302;2023-04-05T01:20:21;97765.34;;;-6.02;64.38
72210;BME280;60113;48.762;12.302;2023-04-05T01:30:53;97761.09;;;-6.17;60.81
72210;BME280;60113;48.762;12.302;2023-04-05T01:38:18;97752.59;;;-6.23;62.42
72210;BME280;60113;48.762;12.302;2023-04-05T01:40:45;97756.00;;;-6.26;66.44
72210;BME280;60113;48.762;12.302;2023-04-05T01:43:17;97756.00;;;-6.24;73.29
72210;BME280;60113;48.762;12.302;2023-04-05T01:45:42;97752.59;;;-6.30;67.53
72210;BME280;60113;48.762;12.302;2023-04-05T01:48:08;97750.03;;;-6.31;76.14
72210;BME280;60113;48.762;12.302;2023-04-05T01:50:34;97758.53;;;-6.40;65.30
72210;BME280;60113;48.762;12.302;2023-04-05T01:52:59;97754.28;;;-6.44;61.85
72210;BME280;60113;48.762;12.302;2023-04-05T01:55:25;97750.88;;;-6.49;62.87
72210;BME280;60113;48.762;12.302;2023-04-05T01:57:50;97745.75;;;-6.51;67.49
72210;BME280;60113;48.762;12.302;2023-04-05T02:00:16;97751.72;;;-6.54;76.13
72210;BME280;60113;48.762;12.302;2023-04-05T02:02:42;97746.59;;;-6.60;73.04
72210;BME280;60113;48.762;12.302;2023-04-05T02:05:07;97750.84;;;-6.62;74.17
72210;BME280;60113;48.762;12.302;2023-04-05T02:07:33;97747.47;;;-6.67;78.41
72210;BME280;60113;48.762;12.302;2023-04-05T02:09:58;97738.09;;;-6.74;72.11
72210;BME280;60113;48.762;12.302;2023-04-05T02:12:23;97737.22;;;-6.81;62.50
72210;BME280;60113;48.762;12.302;2023-04-05T02:14:49;97744.88;;;-6.83;67.35
72210;BME280;60113;48.762;12.302;2023-04-05T02:17:16;97744.88;;;-6.86;71.78
72210;BME280;60113;48.762;12.302;2023-04-05T02:19:42;97739.75;;;-6.87;80.77
72210;BME280;60113;48.762;12.302;2023-04-05T02:22:11;97741.44;;;-6.99;69.99
72210;BME280;60113;48.762;12.302;2023-04-05T02:24:36;97739.72;;;-7.01;62.82
72210;BME280;60113;48.762;12.302;2023-04-05T02:27:01;97739.72;;;-7.03;64.47
72210;BME280;60113;48.762;12.302;2023-04-05T02:29:28;97732.94;;;-7.03;73.82
72210;BME280;60113;48.762;12.302;2023-04-05T02:31:54;97732.06;;;-7.08;69.22
72210;BME280;60113;48.762;12.302;2023-04-05T02:34:19;97734.59;;;-7.11;65.86
72210;BME280;60113;48.762;12.302;2023-04-05T02:36:46;97738.03;;;-7.07;79.11
72210;BME280;60113;48.762;12.302;2023-04-05T02:39:12;97741.41;;;-7.10;80.57
72210;BME280;60113;48.762;12.302;2023-04-05T02:41:38;97733.72;;;-7.16;78.31
72210;BME280;60113;48.762;12.302;2023-04-05T02:44:03;97730.34;;;-7.15;81.95
72210;BME280;60113;48.762;12.302;2023-04-05T02:46:28;97729.47;;;-7.20;79.76
72210;BME280;60113;48.762;12.302;2023-04-05T02:48:53;97730.31;;;-7.26;79.78
72210;BME280;60113;48.762;12.302;2023-04-05T02:51:19;97731.13;;;-7.29;81.67
72210;BME280;60113;48.762;12.302;2023-04-05T02:53:44;97732.84;;;-7.31;82.85
72210;BME280;60113;48.762;12.302;2023-04-05T02:56:10;97726.03;;;-7.35;80.88
72210;BME280;60113;48.762;12.302;2023-04-05T02:58:37;97718.34;;;-7.39;76.93
72210;BME280;60113;48.762;12.302;2023-04-05T03:01:03;97726.00;;;-7.43;75.09
72210;BME280;60113;48.762;12.302;2023-04-05T03:03:31;97723.44;;;-7.46;77.29
72210;BME280;60113;48.762;12.302;2023-04-05T03:05:59;97718.31;;;-7.47;79.97
72210;BME280;60113;48.762;12.302;2023-04-05T03:08:25;97717.44;;;-7.53;75.86
72210;BME280;60113;48.762;12.302;2023-04-05T03:10:52;97721.69;;;-7.53;70.54
72210;BME280;60113;48.762;12.302;2023-04-05T03:13:18;97716.56;;;-7.55;68.67
72210;BME280;60113;48.762;12.302;2023-04-05T03:15:43;97716.56;;;-7.53;71.97
72210;BME280;60113;48.762;12.302;2023-04-05T03:18:09;97716.56;;;-7.55;72.63
72210;BME280;60113;48.762;12.302;2023-04-05T03:20:35;97708.09;;;-7.54;77.26
72210;BME280;60113;48.762;12.302;2023-04-05T03:23:04;97711.47;;;-7.53;83.01
72210;BME280;60113;48.762;12.302;2023-04-05T03:25:30;97709.75;;;-7.57;81.67
72210;BME280;60113;48.762;12.302;2023-04-05T03:27:56;97708.91;;;-7.58;80.26
72210;BME280;60113;48.762;12.302;2023-04-05T03:30:22;97704.66;;;-7.59;79.80
72210;BME280;60113;48.762;12.302;2023-04-05T03:32:47;97707.19;;;-7.62;75.91
72210;BME280;60113;48.762;12.302;2023-04-05T03:35:12;97703.78;;;-7.62;76.23
72210;BME280;60113;48.762;12.302;2023-04-05T03:37:40;97709.72;;;-7.65;78.24
72210;BME280;60113;48.762;12.302;2023-04-05T03:40:06;97708.84;;;-7.70;78.46
72210;BME280;60113;48.762;12.302;2023-04-05T03:42:34;97704.59;;;-7.68;82.90
72210;BME280;60113;48.762;12.302;2023-04-05T03:45:00;97708.03;;;-7.66;85.62
72210;BME280;60113;48.762;12.302;2023-04-05T03:47:25;97712.25;;;-7.71;78.93
72210;BME280;60113;48.762;12.302;2023-04-05T03:49:52;97708.84;;;-7.70;81.90
72210;BME280;60113;48.762;12.302;2023-04-05T03:52:17;97706.28;;;-7.75;78.64
72210;BME280;60113;48.762;12.302;2023-04-05T03:54:42;97710.56;;;-7.74;79.47
72210;BME280;60113;48.762;12.302;2023-04-05T03:57:07;97709.69;;;-7.74;80.43
72210;BME280;60113;48.762;12.302;2023-04-05T03:59:33;97705.44;;;-7.72;80.60
72210;BME280;60113;48.762;12.302;2023-04-05T04:01:58;97708.84;;;-7.70;84.13
72210;BME280;60113;48.762;12.302;2023-04-05T04:04:23;97708.00;;;-7.72;83.20
72210;BME280;60113;48.762;12.302;2023-04-05T04:06:49;97712.25;;;-7.73;84.30
72210;BME280;60113;48.762;12.302;2023-04-05T04:09:15;97707.13;;;-7.76;80.11
72210;BME280;60113;48.762;12.302;2023-04-05T04:11:40;97702.88;;;-7.80;74.59
72210;BME280;60113;48.762;12.302;2023-04-05T04:14:06;97707.97;;;-7.80;74.58
72210;BME280;60113;48.762;12.302;2023-04-05T04:16:32;97705.41;;;-7.82;78.97
72210;BME280;60113;48.762;12.302;2023-04-05T04:18:57;97704.53;;;-7.85;79.25
72210;BME280;60113;48.762;12.302;2023-04-05T04:21:22;97707.06;;;-7.92;78.19
72210;BME280;60113;48.762;12.302;2023-04-05T04:23:49;97707.00;;;-7.98;77.55
72210;BME280;60113;48.762;12.302;2023-04-05T04:26:16;97707.00;;;-8.03;70.13
72210;BME280;60113;48.762;12.302;2023-04-05T04:28:51;97703.59;;;-8.03;67.79
72210;BME280;60113;48.762;12.302;2023-04-05T04:31:17;97697.63;;;-8.05;70.18
72210;BME280;60113;48.762;12.302;2023-04-05T04:33:42;97701.03;;;-8.05;73.46
72210;BME280;60113;48.762;12.302;2023-04-05T04:36:08;97706.13;;;-8.06;73.60
72210;BME280;60113;48.762;12.302;2023-04-05T04:38:37;97703.56;;;-8.11;65.92
72210;BME280;60113;48.762;12.302;2023-04-05T04:41:07;97701.03;;;-8.09;72.69
72210;BME280;60113;48.762;12.302;2023-04-05T04:43:32;97699.28;;;-8.12;71.32
72210;BME280;60113;48.762;12.302;2023-04-05T04:46:01;97696.75;;;-8.06;80.93
72210;BME280;60113;48.762;12.302;2023-04-05T04:48:30;97703.59;;;-8.03;84.21
72210;BME280;60113;48.762;12.302;2023-04-05T04:50:57;97705.28;;;-8.04;85.07
72210;BME280;60113;48.762;12.302;2023-04-05T04:53:23;97705.28;;;-8.07;80.90
72210;BME280;60113;48.762;12.302;2023-04-05T04:55:48;97704.41;;;-8.07;70.03
72210;BME280;60113;48.762;12.302;2023-04-05T04:58:14;97706.97;;;-8.04;66.87
72210;BME280;60113;48.762;12.302;2023-04-05T05:00:40;97703.63;;;-8.01;64.72
72210;BME280;60113;48.762;12.302;2023-04-05T05:03:08;97709.56;;;-7.99;65.98
72210;BME280;60113;48.762;12.302;2023-04-05T05:05:35;97708.69;;;-7.98;63.26
72210;BME280;60113;48.762;12.302;2023-04-05T05:08:00;97712.13;;;-7.96;64.29
72210;BME280;60113;48.762;12.302;2023-04-05T05:10:25;97701.94;;;-7.95;63.40
72210;BME280;60113;48.762;12.302;2023-04-05T05:12:51;97707.91;;;-7.89;74.23
72210;BME280;60113;48.762;12.302;2023-04-05T05:15:17;97707.94;;;-7.86;76.68
72210;BME280;60113;48.762;12.302;2023-04-05T05:17:43;97711.31;;;-7.87;73.99
72210;BME280;60113;48.762;12.302;2023-04-05T05:20:09;97708.78;;;-7.86;70.36
72210;BME280;60113;48.762;12.302;2023-04-05T05:22:37;97712.22;;;-7.81;71.99
72210;BME280;60113;48.762;12.302;2023-04-05T05:25:04;97713.09;;;-7.79;65.99
72210;BME280;60113;48.762;12.302;2023-04-05T05:27:30;97713.13;;;-7.69;71.46
72210;BME280;60113;48.762;12.302;2023-04-05T05:29:55;97710.59;;;-7.64;74.17
72210;BME280;60113;48.762;12.302;2023-04-05T05:32:21;97714.84;;;-7.60;74.98
72210;BME280;60113;48.762;12.302;2023-04-05T05:34:47;97715.75;;;-7.55;75.82
72210;BME280;60113;48.762;12.302;2023-04-05T05:37:13;97711.47;;;-7.50;77.42
72210;BME280;60113;48.762;12.302;2023-04-05T05:39:39;97716.59;;;-7.50;75.96
72210;BME280;60113;48.762;12.302;2023-04-05T05:42:06;97714.06;;;-7.44;76.02
72210;BME280;60113;48.762;12.302;2023-04-05T05:44:32;97719.19;;;-7.39;76.82
72210;BME280;60113;48.762;12.302;2023-04-05T05:46:57;97720.91;;;-7.35;77.88
72210;BME280;60113;48.762;12.302;2023-04-05T05:49:23;97720.91;;;-7.29;78.04
72210;BME280;60113;48.762;12.302;2023-04-05T05:51:49;97722.66;;;-7.21;79.75
72210;BME280;60113;48.762;12.302;2023-04-05T05:54:15;97721.81;;;-7.11;81.60
72210;BME280;60113;48.762;12.302;2023-04-05T05:56:40;97714.19;;;-7.01;82.39
72210;BME280;60113;48.762;12.302;2023-04-05T05:59:05;97719.31;;;-6.94;80.47
72210;BME280;60113;48.762;12.302;2023-04-05T06:01:31;97720.19;;;-6.67;79.89
72210;BME280;60113;48.762;12.302;2023-04-05T06:03:58;97717.59;;;-6.15;81.56
72210;BME280;60113;48.762;12.302;2023-04-05T06:06:24;97716.56;;;-5.52;79.90
72210;BME280;60113;48.762;12.302;2023-04-05T06:08:49;97720.50;;;-4.88;77.03
72210;BME280;60113;48.762;12.302;2023-04-05T06:11:16;97714.13;;;-4.34;74.91
72210;BME280;60113;48.762;12.302;2023-04-05T06:13:41;97713.59;;;-3.79;74.64
72210;BME280;60113;48.762;12.302;2023-04-05T06:16:06;97715.59;;;-3.28;73.96
72210;BME280;60113;48.762;12.302;2023-04-05T06:18:32;97711.56;;;-2.83;73.81
72210;BME280;60113;48.762;12.302;2023-04-05T06:20:57;97709.38;;;-2.53;75.75
72210;BME280;60113;48.762;12.302;2023-04-05T06:23:22;97716.09;;;-2.42;75.97
72210;BME280;60113;48.762;12.302;2023-04-05T06:25:48;97714.28;;;-2.37;75.87
72210;BME280;60113;48.762;12.302;2023-04-05T06:28:13;97715.75;;;-2.20;75.73
72210;BME280;60113;48.762;12.302;2023-04-05T06:30:38;97721.78;;;-2.24;75.80
72210;BME280;60113;48.762;12.302;2023-04-05T06:33:03;97716.91;;;-1.90;75.57
72210;BME280;60113;48.762;12.302;2023-04-05T06:35:29;97721.03;;;-1.79;74.74
72210;BME280;60113;48.762;12.302;2023-04-05T06:37:54;97715.44;;;-1.56;74.61
72210;BME280;60113;48.762;12.302;2023-04-05T06:40:20;97716.44;;;-1.63;74.02
72210;BME280;60113;48.762;12.302;2023-04-05T06:42:45;97720.41;;;-1.46;74.56
72210;BME280;60113;48.762;12.302;2023-04-05T06:45:11;97717.56;;;-1.32;74.60
72210;BME280;60113;48.762;12.302;2023-04-05T06:47:37;97721.38;;;-1.09;74.91
72210;BME280;60113;48.762;12.302;2023-04-05T06:50:03;97726.13;;;-0.91;73.31
72210;BME280;60113;48.762;12.302;2023-04-05T06:52:28;97720.97;;;-0.91;72.58
72210;BME280;60113;48.762;12.302;2023-04-05T06:54:54;97730.75;;;-1.07;72.26
72210;BME280;60113;48.762;12.302;2023-04-05T06:57:20;97727.69;;;-0.83;72.82
72210;BME280;60113;48.762;12.302;2023-04-05T06:59:46;97730.66;;;-0.61;71.87
72210;BME280;60113;48.762;12.302;2023-04-05T07:02:11;97732.91;;;-0.47;71.97
72210;BME280;60113;48.762;12.302;2023-04-05T07:04:37;97721.56;;;-0.41;71.28
72210;BME280;60113;48.762;12.302;2023-04-05T07:07:04;97722.13;;;-0.28;72.16
72210;BME280;60113;48.762;12.302;2023-04-05T07:09:33;97723.41;;;-0.10;71.37
72210;BME280;60113;48.762;12.302;2023-04-05T07:11:59;97723.41;;;-0.10;70.72
72210;BME280;60113;48.762;12.302;2023-04-05T07:14:25;97717.53;;;0.18;70.06
72210;BME280;60113;48.762;12.302;2023-04-05T07:16:50;97715.78;;;0.51;70.09
72210;BME280;60113;48.762;12.302;2023-04-05T07:19:16;97711.31;;;0.57;67.12
72210;BME280;60113;48.762;12.302;2023-04-05T07:21:43;97716.75;;;0.78;66.21
72210;BME280;60113;48.762;12.302;2023-04-05T07:24:08;97713.03;;;1.17;68.79
72210;BME280;60113;48.762;12.302;2023-04-05T07:26:34;97707.44;;;1.58;70.97
72210;BME280;60113;48.762;12.302;2023-04-05T07:29:01;97708.13;;;1.91;64.03
72210;BME280;60113;48.762;12.302;2023-04-05T07:31:27;97707.47;;;1.84;54.50
72210;BME280;60113;48.762;12.302;2023-04-05T07:33:52;97709.50;;;2.01;54.82
72210;BME280;60113;48.762;12.302;2023-04-05T07:36:18;97703.94;;;2.37;60.37
72210;BME280;60113;48.762;12.302;2023-04-05T07:38:43;97711.84;;;2.58;54.98
72210;BME280;60113;48.762;12.302;2023-04-05T07:41:09;97707.06;;;2.71;51.54
72210;BME280;60113;48.762;12.302;2023-04-05T07:43:35;97704.13;;;2.81;51.68
72210;BME280;60113;48.762;12.302;2023-04-05T07:46:03;97713.53;;;3.07;56.22
72210;BME280;60113;48.762;12.302;2023-04-05T07:48:29;97708.19;;;3.34;58.70
72210;BME280;60113;48.762;12.302;2023-04-05T07:50:55;97709.00;;;3.35;48.43
72210;BME280;60113;48.762;12.302;2023-04-05T07:53:20;97714.50;;;3.49;47.18
72210;BME280;60113;48.762;12.302;2023-04-05T07:55:45;97709.91;;;3.56;47.91
72210;BME280;60113;48.762;12.302;2023-04-05T07:58:11;97715.22;;;3.31;44.77
72210;BME280;60113;48.762;12.302;2023-04-05T08:00:36;97710.28;;;3.24;44.55
72210;BME280;60113;48.762;12.302;2023-04-05T08:03:02;97708.16;;;3.12;44.19
72210;BME280;60113;48.762;12.302;2023-04-05T08:05:28;97708.28;;;3.09;47.41
72210;BME280;60113;48.762;12.302;2023-04-05T08:07:54;97705.38;;;3.17;45.46
72210;BME280;60113;48.762;12.302;2023-04-05T08:10:19;97706.03;;;3.44;46.54
72210;BME280;60113;48.762;12.302;2023-04-05T08:12:45;97706.84;;;3.69;50.57
72210;BME280;60113;48.762;12.302;2023-04-05T08:15:10;97700.88;;;3.87;47.21
72210;BME280;60113;48.762;12.302;2023-04-05T08:17:36;97709.47;;;3.00;44.29
72210;BME280;60113;48.762;12.302;2023-04-05T08:20:01;97708.53;;;3.25;45.63
72210;BME280;60113;48.762;12.302;2023-04-05T08:22:27;97702.09;;;3.79;53.99
72210;BME280;60113;48.762;12.302;2023-04-05T08:24:53;97694.75;;;4.09;49.08
72210;BME280;60113;48.762;12.302;2023-04-05T08:27:18;97694.28;;;4.41;47.81
72210;BME280;60113;48.762;12.302;2023-04-05T08:29:44;97688.59;;;4.71;46.68
72210;BME280;60113;48.762;12.302;2023-04-05T08:32:09;97692.56;;;4.99;48.69
72210;BME280;60113;48.762;12.302;2023-04-05T08:34:35;97682.34;;;5.14;44.56
72210;BME280;60113;48.762;12.302;2023-04-05T08:37:01;97687.38;;;4.80;39.89
72210;BME280;60113;48.762;12.302;2023-04-05T08:39:26;97680.16;;;4.85;41.07
72210;BME280;60113;48.762;12.302;2023-04-05T08:42:02;97686.56;;;4.78;41.54
72210;BME280;60113;48.762;12.302;2023-04-05T08:44:29;97685.00;;;4.55;39.45
72210;BME280;60113;48.762;12.302;2023-04-05T08:46:55;97685.31;;;4.87;44.36
72210;BME280;60113;48.762;12.302;2023-04-05T08:49:22;97680.94;;;4.87;40.41
72210;BME280;60113;48.762;12.302;2023-04-05T08:51:47;97678.34;;;4.87;40.88
72210;BME280;60113;48.762;12.302;2023-04-05T08:54:13;97686.13;;;4.68;40.71
72210;BME280;60113;48.762;12.302;2023-04-05T08:56:38;97682.72;;;4.07;40.10
72210;BME280;60113;48.762;12.302;2023-04-05T08:59:07;97683.53;;;3.22;41.06
72210;BME280;60113;48.762;12.302;2023-04-05T09:01:36;97683.84;;;3.15;42.16
72210;BME280;60113;48.762;12.302;2023-04-05T09:04:05;97692.09;;;3.02;40.20
72210;BME280;60113;48.762;12.302;2023-04-05T09:06:31;97688.00;;;3.19;40.64
72210;BME280;60113;48.762;12.302;2023-04-05T09:08:57;97694.03;;;3.19;42.17
72210;BME280;60113;48.762;12.302;2023-04-05T09:11:22;97690.38;;;2.79;41.02
72210;BME280;60113;48.762;12.302;2023-04-05T09:13:48;97685.47;;;3.17;41.97
72210;BME280;60113;48.762;12.302;2023-04-05T09:16:14;97691.72;;;2.89;40.95
72210;BME280;60113;48.762;12.302;2023-04-05T09:18:40;97694.75;;;3.45;41.71
72210;BME280;60113;48.762;12.302;2023-04-05T09:21:05;97680.41;;;3.80;39.52
72210;BME280;60113;48.762;12.302;2023-04-05T09:23:32;97680.78;;;4.12;39.12
72210;BME280;60113;48.762;12.302;2023-04-05T09:25:58;97691.44;;;3.85;38.45
72210;BME280;60113;48.762;12.302;2023-04-05T09:28:38;97688.34;;;4.37;42.55
72210;BME280;60113;48.762;12.302;2023-04-05T09:31:04;97686.53;;;4.99;45.41
72210;BME280;60113;48.762;12.302;2023-04-05T09:33:29;97684.22;;;5.30;39.40
72210;BME280;60113;48.762;12.302;2023-04-05T09:35:54;97692.00;;;4.54;39.37
72210;BME280;60113;48.762;12.302;2023-04-05T09:38:20;97682.25;;;4.58;38.81
72210;BME280;60113;48.762;12.302;2023-04-05T09:41:08;97674.47;;;5.16;42.70
72210;BME280;60113;48.762;12.302;2023-04-05T09:43:40;97680.09;;;5.43;37.66
72210;BME280;60113;48.762;12.302;2023-04-05T09:46:06;97669.19;;;5.35;38.98
72210;BME280;60113;48.762;12.302;2023-04-05T09:48:47;97662.22;;;5.35;40.68
72210;BME280;60113;48.762;12.302;2023-04-05T09:51:13;97670.91;;;5.54;40.01
72210;BME280;60113;48.762;12.302;2023-04-05T09:56:24;97664.00;;;6.07;42.96
72210;BME280;60113;48.762;12.302;2023-04-05T09:58:50;97656.19;;;6.23;38.53
72210;BME280;60113;48.762;12.302;2023-04-05T10:01:15;97657.53;;;6.48;40.88
72210;BME280;60113;48.762;12.302;2023-04-05T10:03:47;97663.19;;;6.73;45.45
72210;BME280;60113;48.762;12.302;2023-04-05T10:06:13;97663.81;;;6.78;38.36
72210;BME280;60113;48.762;12.302;2023-04-05T10:08:39;97664.31;;;6.85;37.39
72210;BME280;60113;48.762;12.302;2023-04-05T10:11:04;97666.94;;;7.01;41.21
72210;BME280;60113;48.762;12.302;2023-04-05T10:13:30;97657.59;;;7.13;37.05
72210;BME280;60113;48.762;12.302;2023-04-05T10:15:56;97658.88;;;7.36;43.13
72210;BME280;60113;48.762;12.302;2023-04-05T10:18:27;97660.16;;;7.45;38.06
72210;BME280;60113;48.762;12.302;2023-04-05T10:20:53;97654.63;;;7.19;38.82
72210;BME280;60113;48.762;12.302;2023-04-05T10:23:23;97659.59;;;7.08;38.71
72210;BME280;60113;48.762;12.302;2023-04-05T10:28:36;97648.00;;;5.96;36.18
72210;BME280;60113;48.762;12.302;2023-04-05T10:31:08;97645.81;;;5.16;35.83
72210;BME280;60113;48.762;12.302;2023-04-05T10:33:34;97652.66;;;5.36;36.35
72210;BME280;60113;48.762;12.302;2023-04-05T10:36:26;97632.88;;;5.85;39.92
72210;BME280;60113;48.762;12.302;2023-04-05T10:39:12;97645.59;;;5.20;39.15
72210;BME280;60113;48.762;12.302;2023-04-05T10:41:40;97650.09;;;5.71;36.43
72210;BME280;60113;48.762;12.302;2023-04-05T10:44:08;97646.75;;;6.03;35.76
72210;BME280;60113;48.762;12.302;2023-04-05T10:46:33;97651.97;;;6.03;36.22
72210;BME280;60113;48.762;12.302;2023-04-05T10:51:32;97652.91;;;5.67;35.21
72210;BME280;60113;48.762;12.302;2023-04-05T10:53:58;97648.47;;;5.51;36.01
72210;BME280;60113;48.762;12.302;2023-04-05T10:56:24;97646.47;;;5.74;34.35
72210;BME280;60113;48.762;12.302;2023-04-05T10:58:50;97643.78;;;6.11;36.97
72210;BME280;60113;48.762;12.302;2023-04-05T11:01:16;97649.31;;;6.22;36.25
72210;BME280;60113;48.762;12.302;2023-04-05T11:08:46;97634.03;;;7.29;38.26
72210;BME280;60113;48.762;12.302;2023-04-05T11:11:13;97641.94;;;7.74;37.94
72210;BME280;60113;48.762;12.302;2023-04-05T11:13:47;97636.28;;;7.52;35.31
72210;BME280;60113;48.762;12.302;2023-04-05T11:16:12;97622.78;;;7.43;35.61
72210;BME280;60113;48.762;12.302;2023-04-05T11:18:43;97627.41;;;6.59;32.83
72210;BME280;60113;48.762;12.302;2023-04-05T11:21:08;97624.88;;;6.23;33.00
72210;BME280;60113;48.762;12.302;2023-04-05T11:23:57;97625.63;;;5.56;34.60
72210;BME280;60113;48.762;12.302;2023-04-05T11:26:19;97614.34;;;5.01;33.77
72210;BME280;60113;48.762;12.302;2023-04-05T11:28:44;97616.50;;;4.93;34.76
72210;BME280;60113;48.762;12.302;2023-04-05T11:31:17;97622.84;;;4.68;34.52
72210;BME280;60113;48.762;12.302;2023-04-05T11:33:53;97625.91;;;4.95;33.91
72210;BME280;60113;48.762;12.302;2023-04-05T11:36:32;97615.13;;;5.58;34.98
72210;BME280;60113;48.762;12.302;2023-04-05T11:42:07;97613.69;;;5.15;33.01
72210;BME280;60113;48.762;12.302;2023-04-05T11:44:43;97606.75;;;4.96;34.16
72210;BME280;60113;48.762;12.302;2023-04-05T11:47:09;97610.03;;;5.19;33.28
72210;BME280;60113;48.762;12.302;2023-04-05T11:49:37;97607.97;;;5.97;36.13
72210;BME280;60113;48.762;12.302;2023-04-05T11:54:58;97601.19;;;6.44;33.02
72210;BME280;60113;48.762;12.302;2023-04-05T11:57:23;97606.53;;;6.25;33.62
72210;BME280;60113;48.762;12.302;2023-04-05T11:59:49;97596.72;;;6.12;32.12
72210;BME280;60113;48.762;12.302;2023-04-05T12:02:16;97603.72;;;6.46;32.92
72210;BME280;60113;48.762;12.302;2023-04-05T12:04:41;97596.50;;;6.51;32.69
72210;BME280;60113;48.762;12.302;2023-04-05T12:07:10;97599.22;;;6.32;33.34
72210;BME280;60113;48.762;12.302;2023-04-05T12:09:36;97596.94;;;6.25;36.90
72210;BME280;60113;48.762;12.302;2023-04-05T12:12:18;97599.91;;;6.52;37.97
72210;BME280;60113;48.762;12.302;2023-04-05T12:14:44;97596.97;;;6.90;34.32
72210;BME280;60113;48.762;12.302;2023-04-05T12:17:10;97591.38;;;7.29;35.35
72210;BME280;60113;48.762;12.302;2023-04-05T12:19:35;97592.34;;;7.42;32.71
72210;BME280;60113;48.762;12.302;2023-04-05T12:22:01;97582.13;;;7.68;32.89
72210;BME280;60113;48.762;12.302;2023-04-05T12:24:26;97581.97;;;6.45;33.36
72210;BME280;60113;48.762;12.302;2023-04-05T12:26:52;97583.69;;;6.46;35.67
72210;BME280;60113;48.762;12.302;2023-04-05T12:29:17;97583.28;;;6.20;33.62
72210;BME280;60113;48.762;12.302;2023-04-05T12:31:43;97579.59;;;6.24;36.11
72210;BME280;60113;48.762;12.302;2023-04-05T12:34:09;97581.66;;;6.35;34.92
72210;BME280;60113;48.762;12.302;2023-04-05T12:36:34;97575.53;;;6.19;34.72
72210;BME280;60113;48.762;12.302;2023-04-05T12:39:00;97571.56;;;6.61;36.00
72210;BME280;60113;48.762;12.302;2023-04-05T12:41:30;97570.28;;;6.69;34.24
72210;BME280;60113;48.762;12.302;2023-04-05T12:43:55;97572.03;;;7.00;35.35
72210;BME280;60113;48.762;12.302;2023-04-05T12:46:38;97562.44;;;7.32;34.14
72210;BME280;60113;48.762;12.302;2023-04-05T12:49:16;97562.88;;;7.55;32.86
72210;BME280;60113;48.762;12.302;2023-04-05T12:51:42;97558.19;;;7.45;32.59
72210;BME280;60113;48.762;12.302;2023-04-05T12:54:10;97553.25;;;7.24;35.61
72210;BME280;60113;48.762;12.302;2023-04-05T12:56:37;97569.25;;;6.71;34.69
72210;BME280;60113;48.762;12.302;2023-04-05T12:59:03;97565.44;;;5.95;34.35
72210;BME280;60113;48.762;12.302;2023-04-05T13:01:29;97558.25;;;6.00;35.69
72210;BME280;60113;48.762;12.302;2023-04-05T13:03:55;97562.06;;;5.59;34.78
72210;BME280;60113;48.762;12.302;2023-04-05T13:06:22;97555.41;;;5.87;35.77
72210;BME280;60113;48.762;12.302;2023-04-05T13:08:47;97547.47;;;5.72;35.50
72210;BME280;60113;48.762;12.302;2023-04-05T13:11:13;97555.19;;;5.92;35.30
72210;BME280;60113;48.762;12.302;2023-04-05T13:13:38;97549.53;;;6.17;34.73
72210;BME280;60113;48.762;12.302;2023-04-05T13:16:04;97544.06;;;6.86;34.35
72210;BME280;60113;48.762;12.302;2023-04-05T13:18:29;97536.25;;;7.17;34.65
72210;BME280;60113;48.762;12.302;2023-04-05T13:20:54;97552.72;;;7.03;32.95
72210;BME280;60113;48.762;12.302;2023-04-05T13:23:20;97542.53;;;6.98;34.31
72210;BME280;60113;48.762;12.302;2023-04-05T13:25:45;97542.50;;;6.68;35.41
72210;BME280;60113;48.762;12.302;2023-04-05T13:28:10;97532.53;;;6.74;34.20
72210;BME280;60113;48.762;12.302;2023-04-05T13:30:36;97535.75;;;6.31;33.97